CheckWX is a tool to help pilots better visualize weather data.  It is not intended as a substitute for an official pre-flight weather briefing.

14:13:52 UTC

KMAI METAR
Marianna Municipal Airport
Marianna, Florida, USA
Current

21 mins ago

KMAI 201353Z AUTO 13004KT 10SM CLR 27/24 A3010 RMK AO2 SLP189 T02720244 TSNO
Observed
Jul-20 @ 13:53 UTC
Wind
  • 130° at 4 KTS
Visibility
10 SM
Flight Rules
VFR
Cloud Levels
  • Clear skies
Temperature
27°C / 81°F
Dewpoint
24°C / 75°F
Heat Index
31°C / 87°F
Humidity
84%
Altimeter
30.1" Hg
Pressure
1019.32 hPa
Previous

1 hour ago

KMAI 201253Z AUTO 15004KT 10SM CLR 25/23 A3010 RMK AO2 SLP192 T02500233 TSNO
Observed
Jul-20 @ 12:53 UTC
Wind
  • 150° at 4 KTS
Visibility
10 SM
Flight Rules
VFR
Cloud Levels
  • Clear skies
Temperature
25°C / 77°F
Dewpoint
23°C / 73°F
Humidity
89%
Altimeter
30.1" Hg
Pressure
1019.32 hPa
Previous

2 hours ago

KMAI 201153Z AUTO 12003KT 10SM CLR 24/23 A3008 RMK AO2 SLP186 T02390228 10239 20228 51014 TSNO
Observed
Jul-20 @ 11:53 UTC
Wind
  • 120° at 3 KTS
Visibility
10 SM
Flight Rules
VFR
Cloud Levels
  • Clear skies
Temperature
24°C / 75°F
Dewpoint
23°C / 73°F
Humidity
94%
Altimeter
30.08" Hg
Pressure
1018.62 hPa